Time;durP1;ratioP1;P1;durP2;ratioP2;P2;SDS_P1;SDS_P2;PMS_P1;PMS_P2;Temp;Humidity;BMP_temperature;BMP_pressure;BME280_temperature;BME280_humidity;BME280_pressure;Samples;Min_cycle;Max_cycle;Signal;HPM_P1;HPM_P2
2023/12/18 00:02:18;;;;;;;21.77;16.50;;;-0.10;99.70;;;-0.99;100.00;99841.31;4998162;28;20981;-72
2023/12/18 00:04:47;;;;;;;19.93;16.10;;;-0.10;99.80;;;-1.04;100.00;99841.63;5019858;28;20455;-71
2023/12/18 00:07:14;;;;;;;21.20;16.57;;;-0.10;99.90;;;-0.99;100.00;99838.66;5021746;28;20477;-73
2023/12/18 00:09:42;;;;;;;20.10;15.40;;;-0.10;99.90;;;-1.08;100.00;99832.13;5014306;28;20487;-72
2023/12/18 00:12:09;;;;;;;19.27;14.93;;;-0.20;99.90;;;-0.94;100.00;99839.25;5014074;28;20865;-71
2023/12/18 00:14:38;;;;;;;20.57;15.53;;;-0.10;99.90;;;-1.05;100.00;99834.63;5017309;28;20695;-71
2023/12/18 00:17:05;;;;;;;20.60;15.00;;;-0.20;99.60;;;-1.17;100.00;99836.22;5019978;28;20515;-73
2023/12/18 00:19:33;;;;;;;19.10;14.97;;;-0.30;99.20;;;-1.17;100.00;99836.22;5021398;28;20548;-71
2023/12/18 00:22:02;;;;;;;24.27;16.80;;;-0.40;99.80;;;-0.97;100.00;99831.47;5005348;28;20468;-71
2023/12/18 00:24:29;;;;;;;17.63;15.30;;;-0.20;99.90;;;-1.20;100.00;99804.56;5023413;28;20489;-71
2023/12/18 00:26:57;;;;;;;24.10;15.53;;;-0.20;99.90;;;-0.96;100.00;99825.22;5019734;28;20713;-71
2023/12/18 00:29:24;;;;;;;22.10;16.53;;;-0.10;99.90;;;-0.94;100.00;99825.97;5005292;28;20456;-71
2023/12/18 00:31:51;;;;;;;22.30;17.30;;;-0.10;99.90;;;-0.97;100.00;99825.31;5020737;28;20472;-71
2023/12/18 00:34:18;;;;;;;20.07;15.80;;;-0.20;99.90;;;-0.90;100.00;99821.31;5018066;28;20456;-72
2023/12/18 00:36:45;;;;;;;18.70;15.00;;;-0.10;99.90;;;-0.89;100.00;99823.88;5022310;28;21044;-72
2023/12/18 00:39:16;;;;;;;19.97;15.23;;;-0.10;99.90;;;-0.92;100.00;99831.16;5021706;28;20467;-71
2023/12/18 00:41:43;;;;;;;18.93;15.47;;;-0.10;99.90;;;-0.97;100.00;99812.91;5025243;28;20565;-72
2023/12/18 00:44:11;;;;;;;20.07;14.27;;;-0.10;99.20;;;-0.99;100.00;99806.81;5020783;28;20483;-71
2023/12/18 00:46:38;;;;;;;18.57;15.43;;;-0.10;99.00;;;-1.04;100.00;99806.25;5000871;28;20500;-71
2023/12/18 00:49:05;;;;;;;20.10;14.20;;;-0.10;98.90;;;-1.09;100.00;99816.31;5008439;28;20515;-72
2023/12/18 00:51:33;;;;;;;19.97;14.50;;;-0.20;98.40;;;-1.10;100.00;99817.28;5004688;28;20945;-71
2023/12/18 00:54:00;;;;;;;20.93;15.00;;;-0.20;99.00;;;-1.07;100.00;99819.72;5012083;28;20531;-72
2023/12/18 00:56:30;;;;;;;19.20;16.10;;;-0.20;99.80;;;-1.05;100.00;99825.78;5026317;28;20460;-71
2023/12/18 00:58:58;;;;;;;18.90;15.50;;;-0.20;99.80;;;-1.10;100.00;99812.81;5025049;28;20466;-72
2023/12/18 01:01:25;;;;;;;21.80;16.10;;;-0.30;99.60;;;-0.99;100.00;99817.44;5025446;28;20456;-72
2023/12/18 01:03:53;;;;;;;20.80;15.77;;;-0.20;99.90;;;-1.03;100.00;99813.28;5019845;28;21485;-70
2023/12/18 01:06:21;;;;;;;21.77;15.50;;;-0.10;99.90;;;-1.07;100.00;99820.56;5025413;28;20485;-71
2023/12/18 01:08:48;;;;;;;19.57;15.60;;;-0.10;99.90;;;-1.03;100.00;99818.56;5024495;28;20442;-71
2023/12/18 01:11:16;;;;;;;23.00;15.57;;;-0.10;99.90;;;-1.06;100.00;99816.13;5022581;28;20462;-71
2023/12/18 01:13:44;;;;;;;20.47;15.30;;;-0.10;99.90;;;-1.04;100.00;99817.75;5021420;28;20502;-71
2023/12/18 01:16:12;;;;;;;18.93;15.47;;;-0.20;99.90;;;-1.08;100.00;99820.69;5019581;28;20539;-71
2023/12/18 01:18:39;;;;;;;20.17;15.90;;;-0.20;99.80;;;-1.06;100.00;99805.50;5025626;28;20573;-70
2023/12/18 01:21:07;;;;;;;22.30;16.20;;;-0.30;99.90;;;-1.12;100.00;99805.91;5025011;28;20491;-72
2023/12/18 01:23:35;;;;;;;21.67;16.33;;;-0.20;99.90;;;-1.17;100.00;99815.00;5006948;28;20468;-72
2023/12/18 01:26:02;;;;;;;19.43;15.87;;;-0.20;99.90;;;-1.13;100.00;99815.66;5021233;28;20643;-72
2023/12/18 01:28:30;;;;;;;20.70;15.30;;;-0.20;99.90;;;-1.09;100.00;99816.31;5021201;28;20543;-73
2023/12/18 01:30:58;;;;;;;18.47;14.40;;;-0.30;99.90;;;-1.09;100.00;99806.53;5013351;28;20525;-72
2023/12/18 01:33:26;;;;;;;20.93;16.17;;;-0.20;99.90;;;-1.13;100.00;99810.34;5020134;28;21094;-73
2023/12/18 01:35:53;;;;;;;19.20;14.13;;;-0.20;99.90;;;-1.17;100.00;99804.38;5020732;28;20974;-72
2023/12/18 01:38:21;;;;;;;20.50;14.30;;;-0.20;99.90;;;-1.19;100.00;99806.28;5020952;28;20468;-72
2023/12/18 01:40:48;;;;;;;19.67;15.00;;;-0.20;99.90;;;-1.17;100.00;99804.38;5019053;28;20466;-71
2023/12/18 01:43:26;;;;;;;21.00;15.00;;;-0.30;99.90;;;-1.21;100.00;99802.88;5008688;28;20485;-71
2023/12/18 01:45:59;;;;;;;18.13;15.90;;;-0.40;99.60;;;-1.31;100.00;99796.44;5016019;28;20462;-71
2023/12/18 01:48:27;;;;;;;17.00;14.57;;;-0.40;99.60;;;-1.37;100.00;99780.91;5004020;28;20452;-71
2023/12/18 01:50:57;;;;;;;17.10;14.07;;;-0.40;99.90;;;-1.37;100.00;99796.81;5022249;28;20842;-71
2023/12/18 01:53:27;;;;;;;22.10;14.73;;;-0.50;99.70;;;-1.22;100.00;99802.97;5021361;28;20470;-72
2023/12/18 01:55:56;;;;;;;17.90;14.07;;;-0.50;99.90;;;-1.25;100.00;99805.81;5024464;28;20507;-71
2023/12/18 01:58:23;;;;;;;16.67;13.13;;;-0.50;99.90;;;-1.17;100.00;99793.75;5027076;28;20464;-71
2023/12/18 02:00:53;;;;;;;17.90;14.43;;;-0.40;99.90;;;-1.16;100.00;99806.06;5021661;28;20458;-71
2023/12/18 02:03:23;;;;;;;18.20;14.60;;;-0.40;99.90;;;-1.22;100.00;99805.59;5017249;28;20513;-72
2023/12/18 02:05:50;;;;;;;16.97;14.70;;;-0.40;99.90;;;-1.16;100.00;99803.44;5006670;28;20468;-72
2023/12/18 02:08:18;;;;;;;17.60;14.40;;;-0.30;99.90;;;-1.20;100.00;99791.31;5004160;28;20553;-72
2023/12/18 02:10:46;;;;;;;18.40;13.37;;;-0.40;99.90;;;-1.32;100.00;99794.72;5027089;28;20447;-72
2023/12/18 02:13:14;;;;;;;16.20;13.90;;;-0.50;99.80;;;-1.21;100.00;99776.34;5003040;28;20458;-72
2023/12/18 02:15:42;;;;;;;18.90;15.20;;;-0.50;99.90;;;-1.13;100.00;99783.81;5017065;28;20819;-72
2023/12/18 02:18:09;;;;;;;20.77;14.93;;;-0.30;99.90;;;-1.17;100.00;99783.16;5020936;28;20564;-72
2023/12/18 02:20:41;;;;;;;19.47;14.53;;;-0.30;99.90;;;-1.09;100.00;99777.34;5007148;28;21214;-71
2023/12/18 02:23:10;;;;;;;17.57;13.43;;;-0.30;99.90;;;-1.18;100.00;99773.50;5022432;28;20484;-72
2023/12/18 02:25:38;;;;;;;20.97;15.13;;;-0.30;99.90;;;-1.06;100.00;99769.22;5014274;28;20555;-70
2023/12/18 02:28:09;;;;;;;19.40;14.07;;;-0.20;99.90;;;-1.15;100.00;99754.72;5022678;28;20459;-71
2023/12/18 02:30:36;;;;;;;20.10;15.17;;;-0.10;99.90;;;-1.09;100.00;99768.56;5019708;28;21103;-72
2023/12/18 02:33:03;;;;;;;20.90;14.73;;;-0.10;99.90;;;-1.05;100.00;99764.75;5003988;28;20987;-71
2023/12/18 02:35:31;;;;;;;19.00;14.27;;;-0.20;99.90;;;-1.09;100.00;99747.34;5002299;28;20450;-72
2023/12/18 02:37:59;;;;;;;17.43;14.77;;;-0.20;99.90;;;-1.12;100.00;99752.84;5021838;28;20474;-72
2023/12/18 02:40:28;;;;;;;20.10;14.90;;;-0.20;99.90;;;-1.12;100.00;99759.00;5001042;28;20447;-72
2023/12/18 02:42:55;;;;;;;17.53;14.43;;;-0.20;99.90;;;-1.10;100.00;99753.59;5003678;28;21004;-71
2023/12/18 02:45:23;;;;;;;20.70;15.70;;;-0.20;99.90;;;-1.21;100.00;99765.75;4998751;28;20454;-72
2023/12/18 02:47:50;;;;;;;17.43;14.20;;;-0.30;99.60;;;-1.16;100.00;99768.09;5024982;28;20462;-72
2023/12/18 02:50:18;;;;;;;19.37;15.20;;;-0.30;99.70;;;-1.61;100.00;99694.84;5029018;28;20485;-74
2023/12/18 02:52:45;;;;;;;19.07;13.87;;;-0.30;99.20;;;-1.22;100.00;99768.47;5003832;28;21507;-74
2023/12/18 02:55:13;;;;;;;16.93;13.43;;;-0.30;99.10;;;-1.28;100.00;99780.34;5011556;28;20520;-72
2023/12/18 02:57:42;;;;;;;18.40;14.30;;;-0.40;98.50;;;-1.37;100.00;99760.53;5008076;28;21376;-73
2023/12/18 03:00:10;;;;;;;18.50;13.83;;;-0.40;98.20;;;-1.31;100.00;99770.78;5020442;28;20461;-70
2023/12/18 03:02:39;;;;;;;19.57;14.83;;;-0.40;98.60;;;-1.34;100.00;99764.81;4994901;28;20466;-72
2023/12/18 03:05:07;;;;;;;16.87;13.70;;;-0.50;98.10;;;-1.45;100.00;99766.31;5009828;28;20491;-72
2023/12/18 03:07:35;;;;;;;15.23;13.50;;;-0.60;98.00;;;-1.37;100.00;99770.31;5005500;28;20499;-71
2023/12/18 03:10:02;;;;;;;16.23;14.20;;;-0.60;99.00;;;-1.41;100.00;99760.84;5020322;28;20456;-72
2023/12/18 03:12:30;;;;;;;18.63;14.67;;;-0.60;99.30;;;-1.33;100.00;99763.84;5014600;28;21050;-72
2023/12/18 03:14:59;;;;;;;17.60;14.47;;;-0.50;99.90;;;-1.41;100.00;99766.16;5014410;28;20457;-72
2023/12/18 03:17:26;;;;;;;18.33;14.40;;;-0.60;99.50;;;-1.52;100.00;99757.06;5016404;28;20778;-70
2023/12/18 03:19:54;;;;;;;18.07;13.43;;;-0.70;99.10;;;-1.43;100.00;99756.50;5017027;28;20468;-71
2023/12/18 03:22:21;;;;;;;17.00;14.03;;;-0.70;99.90;;;-1.39;100.00;99758.94;5021007;28;20484;-71
2023/12/18 03:24:48;;;;;;;16.20;13.60;;;-0.70;99.90;;;-1.40;100.00;99766.03;5018889;28;20490;-71
2023/12/18 03:27:16;;;;;;;19.20;13.60;;;-0.60;99.90;;;-1.35;100.00;99768.41;4998317;28;20813;-73
2023/12/18 03:29:43;;;;;;;16.47;13.33;;;-0.60;99.90;;;-1.33;100.00;99761.19;5012722;28;20462;-72
2023/12/18 03:32:12;;;;;;;15.97;13.13;;;-0.60;99.90;;;-1.39;100.00;99754.47;4997782;28;21334;-71
2023/12/18 03:34:39;;;;;;;18.50;13.83;;;-0.60;99.90;;;-1.37;100.00;99760.53;5023223;28;20464;-71
2023/12/18 03:37:06;;;;;;;17.83;13.93;;;-0.50;99.90;;;-1.30;100.00;99755.69;5020229;28;20546;-73
2023/12/18 03:39:34;;;;;;;16.73;13.63;;;-0.40;99.90;;;-1.39;100.00;99753.63;5022312;28;20534;-71
2023/12/18 03:42:01;;;;;;;16.93;13.80;;;-0.40;99.90;;;-1.41;100.00;99752.88;5021502;28;20833;-72
2023/12/18 03:44:28;;;;;;;18.80;14.70;;;-0.50;99.90;;;-1.43;100.00;99755.63;5005840;28;20857;-73
2023/12/18 03:46:57;;;;;;;18.80;13.93;;;-0.50;99.80;;;-1.40;100.00;99755.44;5018027;28;20447;-73
2023/12/18 03:49:25;;;;;;;17.87;13.17;;;-0.50;99.90;;;-1.46;100.00;99743.41;5015352;28;20463;-73
2023/12/18 03:51:53;;;;;;;19.60;14.57;;;-0.50;99.90;;;-1.50;100.00;99733.09;5020200;28;20457;-72
2023/12/18 03:54:21;;;;;;;17.67;14.27;;;-0.50;99.90;;;-1.46;100.00;99743.41;5016642;28;20456;-73
2023/12/18 03:56:48;;;;;;;20.23;15.40;;;-0.50;99.90;;;-1.38;100.00;99747.38;4995610;28;20461;-72
2023/12/18 03:59:16;;;;;;;15.80;13.20;;;-0.50;99.90;;;-1.49;100.00;99740.09;5023242;28;20445;-73
2023/12/18 04:01:43;;;;;;;19.37;13.47;;;-0.50;99.90;;;-1.34;100.00;99743.59;5021076;28;20463;-73
2023/12/18 04:04:12;;;;;;;18.67;14.47;;;-0.40;99.90;;;-1.45;100.00;99757.53;5016056;28;20486;-71
2023/12/18 04:06:44;;;;;;;16.30;14.10;;;-0.40;99.90;;;-1.36;100.00;99746.34;5019632;28;20506;-72
2023/12/18 04:09:11;;;;;;;15.67;13.87;;;-0.40;99.90;;;-1.44;100.00;99728.28;5004544;28;20465;-72
2023/12/18 04:11:39;;;;;;;16.20;13.77;;;-0.40;99.90;;;-1.40;100.00;99743.97;5021075;28;21108;-72
2023/12/18 04:14:06;;;;;;;17.37;13.57;;;-0.40;99.30;;;-1.39;100.00;99748.34;5016952;28;20463;-71
2023/12/18 04:16:33;;;;;;;18.13;13.57;;;-0.40;99.80;;;-1.30;100.00;99745.09;5003433;28;20476;-72
2023/12/18 04:19:01;;;;;;;21.30;14.10;;;-0.40;99.60;;;-1.36;100.00;99741.03;5019822;28;20954;-73
2023/12/18 04:21:28;;;;;;;20.37;15.63;;;-0.40;99.60;;;-1.33;100.00;99739.97;5004858;28;20450;-72
2023/12/18 04:23:58;;;;;;;20.60;14.27;;;-0.40;99.80;;;-1.35;100.00;99736.56;5005685;28;21068;-72
2023/12/18 04:26:25;;;;;;;17.07;13.40;;;-0.40;99.40;;;-1.78;100.00;99671.22;4997938;28;20458;-72
2023/12/18 04:28:53;;;;;;;16.50;13.33;;;-0.50;99.00;;;-1.43;100.00;99722.03;5002229;28;20455;-72
2023/12/18 04:31:21;;;;;;;18.20;14.23;;;-0.40;99.20;;;-1.38;100.00;99723.53;5021063;28;20453;-71
2023/12/18 04:33:49;;;;;;;19.93;13.10;;;-0.50;98.90;;;-1.35;100.00;99721.53;5019141;28;20483;-71
2023/12/18 04:36:16;;;;;;;16.43;13.57;;;-0.40;99.50;;;-1.34;100.00;99730.31;5020821;28;20457;-72
2023/12/18 04:38:46;;;;;;;15.77;12.50;;;-0.40;99.10;;;-1.27;100.00;99728.13;5024592;28;20467;-72
2023/12/18 04:41:22;;;;;;;15.77;12.80;;;-0.40;99.10;;;-1.41;100.00;99726.38;5024178;28;20466;-72
2023/12/18 04:43:50;;;;;;;17.73;13.63;;;-0.40;98.70;;;-1.34;100.00;99732.97;5012384;28;20486;-71
2023/12/18 04:46:18;;;;;;;17.63;13.53;;;-0.50;98.20;;;-1.37;100.00;99749.09;5023327;28;20470;-72
2023/12/18 04:48:45;;;;;;;20.70;12.87;;;-0.50;98.40;;;-1.45;100.00;99747.75;5021503;28;20470;-72
2023/12/18 04:51:12;;;;;;;16.27;12.47;;;-0.50;98.20;;;-1.57;100.00;99727.34;5014820;28;20467;-72
2023/12/18 04:53:41;;;;;;;17.80;13.23;;;-0.60;97.90;;;-1.40;100.00;99744.81;5021174;28;20481;-71
2023/12/18 04:56:09;;;;;;;16.67;13.20;;;-0.50;98.10;;;-1.54;100.00;99732.44;5007697;28;20529;-72
2023/12/18 04:58:38;;;;;;;15.57;12.70;;;-0.60;97.80;;;-1.53;100.00;99736.78;4998182;28;20732;-71
2023/12/18 05:01:05;;;;;;;15.43;12.80;;;-0.50;98.10;;;-1.53;100.00;99742.09;5019629;28;20467;-72
2023/12/18 05:03:33;;;;;;;19.83;13.20;;;-0.60;97.70;;;-1.62;100.00;99724.97;4999129;28;21077;-71
2023/12/18 05:06:00;;;;;;;16.33;12.40;;;-0.60;97.80;;;-1.51;100.00;99724.28;5020071;28;20462;-72
2023/12/18 05:08:28;;;;;;;15.90;13.23;;;-0.50;98.20;;;-1.48;100.00;99732.03;5009030;28;20480;-72
2023/12/18 05:10:57;;;;;;;17.53;13.47;;;-0.50;98.10;;;-1.50;100.00;99736.59;5003268;28;20816;-71
2023/12/18 05:13:24;;;;;;;17.53;13.70;;;-0.60;97.50;;;-1.49;100.00;99735.63;4999177;28;20458;-73
2023/12/18 05:15:53;;;;;;;18.70;13.73;;;-0.60;98.10;;;-1.54;100.00;99729.78;5017982;28;20460;-70
2023/12/18 05:18:21;;;;;;;16.87;13.83;;;-0.50;98.20;;;-1.64;100.00;99712.75;5021388;28;20469;-71
2023/12/18 05:20:48;;;;;;;16.53;12.60;;;-0.50;98.00;;;-1.54;100.00;99743.03;5004007;28;20447;-71
2023/12/18 05:23:16;;;;;;;18.30;13.40;;;-0.60;97.60;;;-1.53;100.00;99728.84;5008074;28;20468;-71
2023/12/18 05:25:44;;;;;;;19.87;13.60;;;-0.60;98.40;;;-1.52;100.00;99725.22;5006506;28;20474;-71
2023/12/18 05:28:11;;;;;;;17.87;12.77;;;-0.50;98.40;;;-1.45;100.00;99720.41;5026065;28;20456;-71
2023/12/18 05:30:39;;;;;;;14.73;12.00;;;-0.50;98.60;;;-1.49;100.00;99710.94;5012982;28;20466;-71
2023/12/18 05:33:08;;;;;;;17.93;14.90;;;-0.50;98.20;;;-1.50;100.00;99718.03;5018585;28;20459;-71
2023/12/18 05:35:36;;;;;;;17.67;13.60;;;-0.50;97.90;;;-1.43;100.00;99713.19;5002615;28;20462;-70
2023/12/18 05:38:03;;;;;;;18.40;14.37;;;-0.50;98.10;;;-1.46;100.00;99714.22;5006521;28;20473;-70
2023/12/18 05:40:33;;;;;;;18.17;12.00;;;-0.50;97.60;;;-0.86;100.00;99714.84;4996937;28;20454;-72
2023/12/18 05:43:01;;;;;;;15.10;12.50;;;-0.20;99.90;;;-0.94;100.00;99709.19;4984095;28;21122;-72
2023/12/18 05:45:31;;;;;;;19.27;13.50;;;-0.10;99.90;;;-1.07;100.00;99703.81;4993509;28;20541;-74
2023/12/18 05:48:02;;;;;;;17.93;13.60;;;0.00;98.90;;;-1.00;100.00;99686.56;5015692;28;20458;-69
2023/12/18 05:50:31;;;;;;;19.20;13.37;;;0.00;98.50;;;-0.75;100.00;99705.34;5003081;28;20518;-72
2023/12/18 05:53:01;;;;;;;19.27;13.60;;;0.10;98.20;;;-0.68;100.00;99714.59;4997183;28;20547;-67
2023/12/18 05:55:29;;;;;;;19.13;14.43;;;0.30;98.00;;;-1.00;100.00;99709.59;5000256;28;20452;-69
2023/12/18 05:57:56;;;;;;;16.63;12.23;;;0.10;95.30;;;-0.90;100.00;99726.63;5022882;28;20486;-70
2023/12/18 06:00:32;;;;;;;19.13;13.30;;;0.10;95.00;;;-1.16;100.00;99721.19;5006744;28;20555;-69
2023/12/18 06:03:02;;;;;;;17.37;13.00;;;0.00;94.30;;;-1.04;100.00;99745.22;5004488;28;21293;-70
2023/12/18 06:05:33;;;;;;;14.93;11.50;;;-0.10;93.80;;;-1.15;99.37;99733.50;5021181;28;20475;-71
2023/12/18 06:08:01;;;;;;;17.93;12.57;;;-0.20;93.80;;;-1.21;99.96;99741.88;5005782;28;20456;-71
2023/12/18 06:10:28;;;;;;;24.47;11.60;;;-0.30;93.80;;;-1.21;100.00;99733.06;5017752;28;20460;-70
2023/12/18 06:12:55;;;;;;;20.40;14.57;;;-0.30;94.30;;;-1.29;100.00;99734.38;5021932;28;20484;-70
2023/12/18 06:15:23;;;;;;;14.90;12.87;;;-0.40;94.40;;;-1.19;100.00;99737.31;5021065;28;20443;-70
2023/12/18 06:17:50;;;;;;;17.53;12.10;;;-0.40;94.50;;;-1.33;100.00;99721.41;5020794;28;20464;-69
2023/12/18 06:20:18;;;;;;;14.60;12.37;;;-0.40;94.50;;;-1.29;100.00;99730.88;5012304;28;20460;-70
2023/12/18 06:22:47;;;;;;;16.10;12.17;;;-0.40;94.60;;;-1.29;100.00;99723.78;5022123;28;20451;-68
2023/12/18 06:25:14;;;;;;;16.70;11.50;;;-0.50;94.60;;;-1.30;100.00;99729.16;5004994;28;20504;-71
2023/12/18 06:27:43;;;;;;;17.03;12.17;;;-0.40;95.00;;;-1.31;100.00;99732.78;5021165;28;20550;-69
2023/12/18 06:30:15;;;;;;;15.93;10.57;;;-0.40;94.60;;;-1.37;100.00;99727.88;5026001;28;20455;-70
2023/12/18 06:32:44;;;;;;;12.70;11.30;;;-0.40;94.70;;;-1.33;100.00;99730.25;5004417;28;21099;-68
2023/12/18 06:35:11;;;;;;;15.53;11.20;;;-0.40;94.70;;;-1.43;100.00;99719.38;5024837;28;20814;-67
2023/12/18 06:37:42;;;;;;;17.80;15.20;;;-0.40;94.60;;;-1.30;100.00;99726.53;5020215;28;20448;-68
2023/12/18 06:40:14;;;;;;;16.50;13.20;;;-0.40;94.70;;;-1.28;100.00;99737.91;5002600;28;21019;-69
2023/12/18 06:42:41;;;;;;;15.07;11.53;;;-0.40;94.60;;;-1.34;100.00;99735.63;5023499;28;20554;-69
2023/12/18 06:45:11;;;;;;;15.80;11.10;;;-0.40;94.20;;;-1.43;100.00;99745.88;5024699;28;21065;-69
2023/12/18 06:47:38;;;;;;;18.50;12.00;;;-0.50;93.90;;;-1.40;100.00;99738.69;5022851;28;20447;-68
2023/12/18 06:50:07;;;;;;;15.20;11.87;;;-0.40;94.20;;;-1.34;100.00;99748.88;5004883;28;20512;-67
2023/12/18 06:52:35;;;;;;;19.57;13.33;;;-0.40;94.10;;;-1.45;99.96;99761.00;5005645;28;20448;-70
2023/12/18 06:55:02;;;;;;;14.13;12.50;;;-0.50;93.70;;;-1.98;99.73;99686.53;5008074;28;20449;-70
2023/12/18 06:57:31;;;;;;;19.30;13.93;;;-0.50;93.50;;;-1.82;100.00;99755.34;5005624;28;20459;-70
2023/12/18 06:59:58;;;;;;;16.40;11.93;;;-0.70;93.30;;;-1.69;100.00;99750.13;5025262;28;20447;-69
2023/12/18 07:02:26;;;;;;;16.53;11.73;;;-0.70;94.10;;;-1.74;100.00;99762.81;5001965;28;20488;-72
2023/12/18 07:04:54;;;;;;;18.10;12.07;;;-0.70;94.50;;;-1.59;100.00;99753.94;5021065;28;20476;-72
2023/12/18 07:07:22;;;;;;;17.67;13.40;;;-0.70;95.30;;;-1.60;100.00;99754.00;5003305;28;20531;-71
2023/12/18 07:09:50;;;;;;;18.40;12.10;;;-0.60;95.00;;;-1.52;100.00;99762.34;5025590;28;20959;-71
2023/12/18 07:12:18;;;;;;;19.20;13.10;;;-0.70;94.70;;;-1.50;100.00;99760.47;5025450;28;20459;-70
2023/12/18 07:14:47;;;;;;;16.80;12.13;;;-0.70;94.90;;;-1.49;99.99;99762.16;5024266;28;20487;-70
2023/12/18 07:17:14;;;;;;;19.60;14.40;;;-0.70;94.90;;;-1.37;99.73;99762.34;5022634;28;20480;-72
2023/12/18 07:19:42;;;;;;;20.10;13.40;;;-0.60;95.00;;;-1.49;99.43;99763.97;5021591;28;20538;-71
2023/12/18 07:22:10;;;;;;;18.20;13.03;;;-0.60;94.50;;;-1.37;99.62;99760.53;5008397;28;20964;-69
2023/12/18 07:24:37;;;;;;;17.57;12.90;;;-0.60;94.70;;;-1.31;99.25;99764.59;5025511;28;20570;-71
2023/12/18 07:27:05;;;;;;;26.17;13.17;;;-0.60;94.60;;;-1.20;98.68;99764.78;5007232;28;20454;-71
2023/12/18 07:29:32;;;;;;;15.00;12.70;;;-0.50;94.80;;;-1.16;98.31;99758.31;5024358;28;20487;-71
2023/12/18 07:32:02;;;;;;;15.83;12.03;;;-0.50;95.00;;;-1.19;97.69;99763.84;5022147;28;20563;-72
2023/12/18 07:34:29;;;;;;;15.40;11.70;;;-0.40;94.40;;;-1.07;97.67;99774.63;5001987;28;20450;-72
2023/12/18 07:36:57;;;;;;;16.43;12.10;;;-0.40;94.00;;;-1.05;97.14;99770.06;5022603;28;20619;-72
2023/12/18 07:39:24;;;;;;;16.70;11.47;;;-0.30;93.40;;;-1.08;97.19;99759.66;5021279;28;20465;-71
2023/12/18 07:41:52;;;;;;;16.83;11.87;;;-0.30;93.10;;;-1.03;96.76;99768.16;5026010;28;20452;-73
2023/12/18 07:44:19;;;;;;;16.10;12.83;;;-0.20;92.80;;;-1.15;96.88;99749.41;5024703;28;20444;-72
2023/12/18 07:46:50;;;;;;;17.17;12.47;;;-0.20;92.20;;;-0.94;97.00;99761.41;5005361;28;20449;-72
2023/12/18 07:49:19;;;;;;;13.00;11.20;;;-0.10;92.20;;;-1.04;96.74;99751.41;5022369;28;20481;-74
2023/12/18 07:51:46;;;;;;;16.30;11.00;;;-0.10;92.00;;;-1.03;97.12;99757.56;5008504;28;20456;-72
2023/12/18 07:54:14;;;;;;;14.27;10.50;;;-0.10;91.70;;;-1.07;97.34;99756.88;5017961;28;20460;-71
2023/12/18 07:56:41;;;;;;;18.37;12.40;;;-0.10;91.60;;;-1.07;97.17;99758.72;5026640;28;20461;-71
2023/12/18 07:59:11;;;;;;;14.27;11.97;;;-0.10;91.70;;;-0.99;97.27;99761.69;5016946;28;21036;-70
2023/12/18 08:01:38;;;;;;;13.97;11.10;;;-0.10;91.80;;;-0.89;96.48;99759.34;5004312;28;20451;-71
2023/12/18 08:04:05;;;;;;;14.27;11.20;;;-0.10;91.90;;;-0.78;96.39;99770.09;5020590;28;20471;-71
2023/12/18 08:06:34;;;;;;;19.00;12.10;;;0.00;91.90;;;-0.89;96.00;99776.09;5019115;28;20501;-71
2023/12/18 08:09:02;;;;;;;13.00;10.47;;;0.00;91.40;;;-0.73;95.95;99775.97;4999376;28;20985;-71
2023/12/18 08:11:29;;;;;;;13.83;10.33;;;0.00;91.50;;;-0.76;95.40;99776.16;5019605;28;20461;-70
2023/12/18 08:13:56;;;;;;;16.47;11.93;;;0.00;91.40;;;-0.83;95.67;99774.84;5002658;28;20465;-71
2023/12/18 08:16:23;;;;;;;16.50;11.67;;;0.10;91.10;;;-0.86;95.98;99765.28;5019303;28;20544;-72
2023/12/18 08:18:52;;;;;;;14.40;10.50;;;0.00;91.20;;;-0.97;95.60;99746.56;5021474;28;20495;-70
2023/12/18 08:21:19;;;;;;;13.20;10.87;;;0.10;90.90;;;-0.84;95.91;99762.53;5003857;28;20444;-71
2023/12/18 08:23:49;;;;;;;16.87;11.40;;;0.10;90.80;;;-0.74;95.73;99758.34;5002088;28;20531;-70
2023/12/18 08:26:17;;;;;;;15.80;11.90;;;0.10;91.00;;;-0.78;95.66;99748.00;5004111;28;20480;-71
2023/12/18 08:28:44;;;;;;;13.50;10.97;;;0.10;90.90;;;-0.74;95.62;99752.16;5021991;28;21018;-71
2023/12/18 08:31:13;;;;;;;15.33;11.70;;;0.10;90.90;;;-0.62;95.18;99742.53;5021630;28;20460;-71
2023/12/18 08:33:41;;;;;;;15.50;12.73;;;0.20;90.90;;;-0.53;95.36;99744.59;5023151;28;20463;-71
2023/12/18 08:36:10;;;;;;;15.25;13.57;;;0.20;90.90;;;-0.68;94.74;99722.56;5002900;28;20455;-77
2023/12/18 08:38:37;;;;;;;17.47;13.23;;;0.30;90.50;;;-0.55;95.12;99724.38;5010471;28;20198;-73
2023/12/18 08:41:06;;;;;;;14.73;11.90;;;0.30;90.50;;;-0.62;94.34;99719.50;5008103;28;20555;-74
2023/12/18 08:43:34;;;;;;;13.73;10.80;;;0.40;90.30;;;-0.60;94.76;99730.88;5024153;28;20943;-71
2023/12/18 08:46:03;;;;;;;14.67;12.00;;;0.40;90.30;;;-0.32;93.65;99731.69;4998569;28;21170;-71
2023/12/18 08:48:30;;;;;;;14.20;11.33;;;0.50;90.10;;;-0.22;93.01;99725.75;5023565;28;20547;-72
2023/12/18 08:50:57;;;;;;;14.20;11.23;;;0.60;89.80;;;-0.17;93.12;99728.94;5008146;28;20455;-72
2023/12/18 08:53:24;;;;;;;16.13;11.00;;;0.70;88.90;;;-0.23;92.07;99710.75;5008605;28;20450;-78
2023/12/18 08:55:52;;;;;;;13.00;10.93;;;0.70;87.90;;;-0.13;91.01;99711.81;5013535;28;20472;-75
2023/12/18 08:58:22;;;;;;;12.97;10.27;;;0.80;86.90;;;-0.02;90.70;99706.63;5028111;28;20467;-77
2023/12/18 09:00:50;;;;;;;13.23;10.40;;;0.90;86.50;;;-0.09;90.47;99692.06;5008434;28;20463;-78
2023/12/18 09:03:18;;;;;;;14.70;12.03;;;1.00;86.00;;;0.36;89.66;99714.69;5006150;28;20442;-76
2023/12/18 09:05:45;;;;;;;15.07;11.40;;;1.10;86.00;;;0.26;89.16;99725.97;5022472;28;20476;-78
2023/12/18 09:08:13;;;;;;;11.30;9.00;;;1.20;85.10;;;0.23;89.32;99725.34;5023867;28;20453;-76
2023/12/18 09:10:42;;;;;;;10.93;8.80;;;1.20;84.60;;;0.47;88.56;99738.72;5008012;28;20504;-72
2023/12/18 09:13:09;;;;;;;13.60;10.20;;;1.20;84.60;;;0.49;88.02;99726.16;5026674;28;20958;-73
2023/12/18 09:15:40;;;;;;;11.87;10.40;;;1.30;84.30;;;0.60;87.65;99727.22;5008811;28;21095;-69
2023/12/18 09:18:07;;;;;;;14.57;10.60;;;1.40;84.10;;;0.81;87.22;99736.31;5025778;28;21000;-72
2023/12/18 09:20:36;;;;;;;12.70;10.80;;;1.50;84.40;;;0.81;86.24;99736.31;5024873;28;20597;-71
2023/12/18 09:23:05;;;;;;;9.37;7.83;;;1.60;83.80;;;1.03;85.31;99736.56;5025151;28;20456;-69
2023/12/18 09:25:33;;;;;;;11.50;9.30;;;1.70;83.60;;;0.93;85.20;99733.72;5006896;28;20486;-70
2023/12/18 09:28:00;;;;;;;11.20;9.67;;;1.70;82.70;;;1.03;84.44;99729.44;5006807;28;20978;-70
2023/12/18 09:30:28;;;;;;;11.07;9.50;;;1.90;82.10;;;1.11;84.42;99720.91;5007839;28;20980;-70
2023/12/18 09:32:58;;;;;;;11.30;9.03;;;1.90;82.00;;;1.06;84.04;99729.22;5016238;28;20972;-70
2023/12/18 09:35:25;;;;;;;13.13;9.97;;;2.00;81.50;;;1.23;83.66;99729.78;5022049;28;20451;-69
2023/12/18 09:37:53;;;;;;;10.90;9.47;;;2.00;81.50;;;1.18;82.99;99721.28;5022621;28;20541;-70
2023/12/18 09:40:20;;;;;;;14.23;10.27;;;2.10;81.10;;;1.20;82.92;99730.84;5024279;28;20499;-71
2023/12/18 09:42:53;;;;;;;13.00;8.87;;;2.10;80.90;;;1.23;83.03;99711.13;5025397;28;20463;-70
2023/12/18 09:45:23;;;;;;;9.67;8.20;;;2.20;81.00;;;1.26;82.39;99717.09;4991940;28;20475;-69
2023/12/18 09:47:50;;;;;;;9.53;7.73;;;2.20;80.50;;;1.30;82.00;99715.06;5023126;28;20488;-69
2023/12/18 09:50:20;;;;;;;12.90;9.50;;;2.20;80.10;;;1.51;81.91;99712.59;5026481;28;20460;-69
2023/12/18 09:52:59;;;;;;;10.30;8.37;;;2.30;80.30;;;1.51;80.92;99719.75;5024427;28;20471;-70
2023/12/18 09:55:27;;;;;;;11.23;9.77;;;2.40;79.80;;;1.58;81.25;99710.31;5023803;28;20462;-68
2023/12/18 09:57:58;;;;;;;11.77;9.37;;;2.40;79.90;;;1.69;81.06;99710.34;5023321;28;20825;-70
2023/12/18 10:00:26;;;;;;;10.73;8.70;;;2.50;80.10;;;1.55;79.95;99699.88;5025761;28;20462;-70
2023/12/18 10:02:56;;;;;;;10.90;8.40;;;2.60;79.30;;;1.84;80.35;99715.47;5008218;28;20450;-70
2023/12/18 10:05:26;;;;;;;12.43;8.60;;;2.70;79.50;;;1.78;79.84;99713.28;5006857;28;20481;-69
2023/12/18 10:07:55;;;;;;;13.93;8.70;;;2.70;79.10;;;2.07;79.71;99708.38;5021430;28;20549;-70
2023/12/18 10:10:22;;;;;;;11.33;8.07;;;2.80;79.40;;;2.08;78.32;99709.22;5007912;28;20450;-70